Time;durP1;ratioP1;P1;durP2;ratioP2;P2;SDS_P1;SDS_P2;PMS_P1;PMS_P2;Temp;Humidity;BMP_temperature;BMP_pressure;BME280_temperature;BME280_humidity;BME280_pressure;Samples;Min_cycle;Max_cycle;Signal;HPM_P1;HPM_P2
2022/03/02 00:01:58;;;;;;;44.77;22.37;;;7.40;99.90;;;;;;5102187;27;20286;-81
2022/03/02 00:04:25;;;;;;;34.57;20.50;;;7.40;99.90;;;;;;5097519;27;20193;-81
2022/03/02 00:06:51;;;;;;;41.70;22.53;;;7.40;99.90;;;;;;5095972;28;20308;-81
2022/03/02 00:09:18;;;;;;;36.17;21.53;;;7.40;99.90;;;;;;5084153;27;20767;-82
2022/03/02 00:11:45;;;;;;;40.10;21.13;;;7.40;99.90;;;;;;5105771;27;20700;-82
2022/03/02 00:14:12;;;;;;;40.83;21.33;;;7.40;99.90;;;;;;5109828;27;20303;-81
2022/03/02 00:16:39;;;;;;;39.27;21.30;;;7.30;99.90;;;;;;5093064;27;20253;-81
2022/03/02 00:19:06;;;;;;;41.70;21.87;;;7.30;99.90;;;;;;5089599;28;20202;-81
2022/03/02 00:21:34;;;;;;;37.80;21.53;;;7.30;99.90;;;;;;5077440;28;20224;-82
2022/03/02 00:24:03;;;;;;;40.20;22.43;;;7.30;99.90;;;;;;5080475;28;20921;-81
2022/03/02 00:26:34;;;;;;;39.63;22.03;;;7.30;99.90;;;;;;5081123;28;20229;-81
2022/03/02 00:29:01;;;;;;;41.43;22.60;;;7.30;99.90;;;;;;5098316;28;20204;-80
2022/03/02 00:31:28;;;;;;;38.60;22.70;;;7.30;99.90;;;;;;5101977;28;20562;-81
2022/03/02 00:33:55;;;;;;;42.80;21.60;;;7.30;99.90;;;;;;5101002;28;20249;-81
2022/03/02 00:36:22;;;;;;;43.23;22.33;;;7.30;99.90;;;;;;5091765;28;20224;-80
2022/03/02 00:38:49;;;;;;;39.17;21.67;;;7.30;99.90;;;;;;5099543;28;20201;-81
2022/03/02 00:41:16;;;;;;;42.73;23.37;;;7.30;99.90;;;;;;5077190;28;20239;-80
2022/03/02 00:43:43;;;;;;;40.93;22.00;;;7.30;99.90;;;;;;5084466;28;20211;-81
2022/03/02 00:46:09;;;;;;;42.00;22.43;;;7.30;99.90;;;;;;5105374;28;20256;-83
2022/03/02 00:48:36;;;;;;;42.20;22.63;;;7.20;99.90;;;;;;5084074;28;20302;-82
2022/03/02 00:51:04;;;;;;;41.20;22.77;;;7.20;99.90;;;;;;5078934;28;20249;-81
2022/03/02 00:53:31;;;;;;;43.80;23.50;;;7.20;99.90;;;;;;5098097;28;20204;-81
2022/03/02 00:55:58;;;;;;;40.37;22.70;;;7.20;99.90;;;;;;5097364;28;20636;-82
2022/03/02 00:58:25;;;;;;;45.00;22.93;;;7.20;99.90;;;;;;5101191;28;20288;-79
2022/03/02 01:00:52;;;;;;;43.20;23.17;;;7.10;99.90;;;;;;5095417;28;20594;-81
2022/03/02 01:03:18;;;;;;;38.83;22.83;;;7.20;99.90;;;;;;5099662;28;20269;-81
2022/03/02 01:05:45;;;;;;;43.40;23.70;;;7.20;99.90;;;;;;5098574;28;20207;-83
2022/03/02 01:08:12;;;;;;;46.50;23.70;;;7.20;99.90;;;;;;5097012;28;20241;-80
2022/03/02 01:10:39;;;;;;;41.23;22.47;;;7.10;99.90;;;;;;5102551;28;20641;-81
2022/03/02 01:13:06;;;;;;;38.20;21.53;;;7.10;99.90;;;;;;5081147;28;20618;-82
2022/03/02 01:15:32;;;;;;;40.20;22.80;;;7.10;99.90;;;;;;5109207;27;20578;-81
2022/03/02 01:17:59;;;;;;;43.73;22.47;;;7.10;99.90;;;;;;5091872;27;20242;-80
2022/03/02 01:20:27;;;;;;;42.20;23.33;;;7.10;99.90;;;;;;5108271;27;20216;-81
2022/03/02 01:22:54;;;;;;;42.97;24.13;;;7.10;99.90;;;;;;5101602;28;20318;-82
2022/03/02 01:25:21;;;;;;;47.00;24.00;;;7.10;99.90;;;;;;5096724;28;20240;-81
2022/03/02 01:27:48;;;;;;;44.53;23.97;;;7.10;99.90;;;;;;5102818;27;20224;-82
2022/03/02 01:30:14;;;;;;;44.43;24.17;;;7.10;99.90;;;;;;5104237;27;20817;-80
2022/03/02 01:32:42;;;;;;;40.63;22.40;;;7.10;99.90;;;;;;5102465;27;20299;-80
2022/03/02 01:35:11;;;;;;;46.17;24.77;;;7.00;99.90;;;;;;5101057;27;20239;-80
2022/03/02 01:37:38;;;;;;;46.47;23.87;;;7.10;99.90;;;;;;5097033;28;20247;-81
2022/03/02 01:40:09;;;;;;;45.80;24.57;;;7.00;99.90;;;;;;5103231;27;20224;-82
2022/03/02 01:42:38;;;;;;;44.03;23.33;;;7.00;99.90;;;;;;5107365;27;21025;-81
2022/03/02 01:45:06;;;;;;;43.33;23.63;;;7.00;99.90;;;;;;5104864;27;20207;-82
2022/03/02 01:47:33;;;;;;;42.50;24.17;;;6.90;99.90;;;;;;5111581;27;20218;-81
2022/03/02 01:50:01;;;;;;;41.73;23.50;;;7.00;99.90;;;;;;5104670;27;20203;-80
2022/03/02 01:52:28;;;;;;;41.03;23.33;;;7.00;99.90;;;;;;5098767;28;20214;-80
2022/03/02 01:54:54;;;;;;;44.53;24.27;;;6.90;99.90;;;;;;5097591;28;20679;-80
2022/03/02 01:57:21;;;;;;;44.87;23.60;;;6.90;99.90;;;;;;5099509;27;20208;-81
2022/03/02 01:59:48;;;;;;;42.17;23.50;;;6.90;99.90;;;;;;5090410;28;20246;-81
2022/03/02 02:02:15;;;;;;;41.17;23.13;;;6.90;99.90;;;;;;5098701;27;20311;-78
2022/03/02 02:04:42;;;;;;;44.63;24.40;;;6.90;99.90;;;;;;5103342;27;20196;-80
2022/03/02 02:07:09;;;;;;;43.80;24.20;;;6.90;99.90;;;;;;5099414;28;20669;-79
2022/03/02 02:09:36;;;;;;;41.93;23.80;;;6.80;99.90;;;;;;5108523;27;20399;-80
2022/03/02 02:12:03;;;;;;;44.70;24.30;;;6.80;99.90;;;;;;5110666;27;20196;-80
2022/03/02 02:14:30;;;;;;;43.37;23.90;;;6.80;99.90;;;;;;5101533;27;20217;-81
2022/03/02 02:16:56;;;;;;;46.90;24.97;;;6.80;99.90;;;;;;5085157;28;20222;-81
2022/03/02 02:19:23;;;;;;;43.40;24.30;;;6.80;99.90;;;;;;5085548;27;20632;-81
2022/03/02 02:21:50;;;;;;;43.80;23.53;;;6.80;99.90;;;;;;5097386;28;20214;-81
2022/03/02 02:24:17;;;;;;;42.30;23.93;;;6.80;99.90;;;;;;5103318;28;20295;-81
2022/03/02 02:26:44;;;;;;;48.00;24.67;;;6.80;99.90;;;;;;5090074;27;20251;-80
2022/03/02 02:29:11;;;;;;;45.37;25.47;;;6.80;99.90;;;;;;5105532;27;20218;-81
2022/03/02 02:31:39;;;;;;;46.87;23.50;;;6.80;99.90;;;;;;5109308;27;20761;-81
2022/03/02 02:34:06;;;;;;;44.60;24.47;;;6.80;99.90;;;;;;5102761;27;20249;-81
2022/03/02 02:36:33;;;;;;;43.03;23.37;;;6.80;99.90;;;;;;5103664;27;20271;-81
2022/03/02 02:39:00;;;;;;;46.67;23.90;;;6.80;99.90;;;;;;5095658;28;20199;-81
2022/03/02 02:41:27;;;;;;;44.40;22.97;;;6.80;99.90;;;;;;5103581;27;20312;-80
2022/03/02 02:43:53;;;;;;;45.77;23.87;;;6.80;99.90;;;;;;5092124;28;20373;-80
2022/03/02 02:46:20;;;;;;;43.63;23.73;;;6.80;99.90;;;;;;5102413;27;20211;-80
2022/03/02 02:48:47;;;;;;;45.43;23.77;;;6.80;99.90;;;;;;5105409;27;20593;-81
2022/03/02 02:51:14;;;;;;;45.13;23.33;;;6.80;99.90;;;;;;5095449;27;20207;-81
2022/03/02 02:53:40;;;;;;;39.10;22.67;;;6.80;99.90;;;;;;5096195;28;20631;-81
2022/03/02 02:56:07;;;;;;;45.87;22.90;;;6.80;99.90;;;;;;5103600;27;20575;-81
2022/03/02 02:58:34;;;;;;;42.90;23.30;;;6.80;99.90;;;;;;5111328;27;20233;-80
2022/03/02 03:01:02;;;;;;;43.10;22.73;;;6.80;99.90;;;;;;5099798;27;20215;-81
2022/03/02 03:03:29;;;;;;;42.23;22.87;;;6.80;99.90;;;;;;5106582;27;20697;-80
2022/03/02 03:05:56;;;;;;;41.27;22.33;;;6.80;99.90;;;;;;5096415;28;20200;-81
2022/03/02 03:08:23;;;;;;;42.13;22.83;;;6.80;99.90;;;;;;5099993;28;20256;-81
2022/03/02 03:10:50;;;;;;;39.83;22.83;;;6.80;99.90;;;;;;5106791;27;20284;-81
2022/03/02 03:13:17;;;;;;;42.27;22.63;;;6.80;99.90;;;;;;5089523;27;20269;-81
2022/03/02 03:15:45;;;;;;;40.23;23.03;;;6.80;99.90;;;;;;5106930;27;20636;-80
2022/03/02 03:18:12;;;;;;;39.70;22.63;;;6.70;99.90;;;;;;5091394;27;20609;-80
2022/03/02 03:20:38;;;;;;;42.20;22.77;;;6.80;99.90;;;;;;5100676;28;20215;-80
2022/03/02 03:23:06;;;;;;;43.37;22.50;;;6.80;99.90;;;;;;5096772;27;20192;-80
2022/03/02 03:25:34;;;;;;;43.90;23.63;;;6.80;99.90;;;;;;5104042;27;20239;-80
2022/03/02 03:28:00;;;;;;;43.23;23.57;;;6.80;99.90;;;;;;5093147;27;20320;-81
2022/03/02 03:30:28;;;;;;;44.77;23.27;;;6.80;99.90;;;;;;5105926;27;20231;-82
2022/03/02 03:32:55;;;;;;;39.77;23.00;;;6.80;99.90;;;;;;5092571;28;20207;-80
2022/03/02 03:35:24;;;;;;;43.57;23.97;;;6.80;99.90;;;;;;5093086;27;20245;-80
2022/03/02 03:37:51;;;;;;;43.10;22.67;;;6.80;99.90;;;;;;5070356;28;20296;-79
2022/03/02 03:40:19;;;;;;;45.53;24.07;;;6.80;99.90;;;;;;5068674;28;20700;-82
2022/03/02 03:42:45;;;;;;;43.30;23.13;;;6.80;99.90;;;;;;5088951;28;20963;-81
2022/03/02 03:45:13;;;;;;;45.50;25.47;;;6.80;99.90;;;;;;5080597;28;20617;-81
2022/03/02 03:47:41;;;;;;;47.43;23.17;;;6.80;99.90;;;;;;5086523;28;20310;-81
2022/03/02 03:50:10;;;;;;;42.93;22.70;;;6.80;99.90;;;;;;5080678;28;20230;-80
2022/03/02 03:52:37;;;;;;;40.43;22.17;;;6.80;99.90;;;;;;5077788;28;20211;-81
2022/03/02 03:55:05;;;;;;;43.33;23.13;;;6.80;99.90;;;;;;5080966;28;20208;-81
2022/03/02 03:57:32;;;;;;;40.50;21.67;;;6.70;99.90;;;;;;5081251;28;20458;-80
2022/03/02 03:59:59;;;;;;;40.37;22.27;;;6.70;99.90;;;;;;5076930;28;20218;-81
2022/03/02 04:02:26;;;;;;;42.00;23.20;;;6.80;99.90;;;;;;5084594;28;20670;-80
2022/03/02 04:04:53;;;;;;;38.67;21.83;;;6.70;99.90;;;;;;5060805;28;20198;-81
2022/03/02 04:07:20;;;;;;;43.10;22.57;;;6.70;99.90;;;;;;5075650;28;20303;-81
2022/03/02 04:09:47;;;;;;;36.17;21.73;;;6.70;99.90;;;;;;5078838;28;20625;-82
2022/03/02 04:12:14;;;;;;;40.57;21.33;;;6.60;99.90;;;;;;5086378;28;20199;-80
2022/03/02 04:14:40;;;;;;;39.87;21.57;;;6.60;99.90;;;;;;5080488;28;20287;-82
2022/03/02 04:17:07;;;;;;;44.33;23.40;;;6.60;99.90;;;;;;5077809;28;20704;-81
2022/03/02 04:19:35;;;;;;;42.80;21.53;;;6.60;99.90;;;;;;5078192;28;20741;-82
2022/03/02 04:22:02;;;;;;;40.57;22.23;;;6.60;99.90;;;;;;5076952;28;20250;-81
2022/03/02 04:24:29;;;;;;;40.07;21.37;;;6.60;99.90;;;;;;5062385;28;20661;-81
2022/03/02 04:26:56;;;;;;;41.13;22.63;;;6.50;99.90;;;;;;5082627;28;20214;-81
2022/03/02 04:29:22;;;;;;;47.03;23.33;;;6.50;99.90;;;;;;5080631;28;20277;-81
2022/03/02 04:31:49;;;;;;;43.87;21.70;;;6.50;99.90;;;;;;5082030;28;20220;-81
2022/03/02 04:34:16;;;;;;;41.20;21.80;;;6.40;99.90;;;;;;5076740;28;20216;-81
2022/03/02 04:36:43;;;;;;;42.60;21.33;;;6.40;99.90;;;;;;5079609;28;20236;-81
2022/03/02 04:39:10;;;;;;;47.90;22.87;;;6.40;99.90;;;;;;5074344;28;20215;-80
2022/03/02 04:41:36;;;;;;;36.47;21.87;;;6.40;99.90;;;;;;5087099;28;20256;-80
2022/03/02 04:44:04;;;;;;;42.30;21.90;;;6.30;99.90;;;;;;5062938;28;20217;-81
2022/03/02 04:46:31;;;;;;;40.63;21.70;;;6.30;99.90;;;;;;5082447;28;20211;-81
2022/03/02 04:49:10;;;;;;;41.27;23.97;;;6.30;99.90;;;;;;5083107;28;20233;-81
2022/03/02 04:51:38;;;;;;;41.10;21.07;;;6.20;99.90;;;;;;5081448;28;20262;-81
2022/03/02 04:54:06;;;;;;;40.87;22.53;;;6.20;99.90;;;;;;5078840;28;20200;-81
2022/03/02 04:56:34;;;;;;;45.73;22.10;;;6.10;99.90;;;;;;5082125;28;20200;-81
2022/03/02 04:59:01;;;;;;;41.27;21.73;;;6.10;99.90;;;;;;5088908;28;20294;-83
2022/03/02 05:01:28;;;;;;;45.03;22.80;;;6.00;99.90;;;;;;5084712;28;20224;-81
2022/03/02 05:03:55;;;;;;;40.97;22.67;;;6.00;99.90;;;;;;5083460;28;20257;-82
2022/03/02 05:06:22;;;;;;;36.73;21.23;;;5.90;99.90;;;;;;5080697;28;20208;-81
2022/03/02 05:08:49;;;;;;;41.17;23.10;;;5.80;99.90;;;;;;5082555;28;20259;-82
2022/03/02 05:11:16;;;;;;;42.57;21.00;;;5.80;99.90;;;;;;5065793;28;20214;-83
2022/03/02 05:13:43;;;;;;;45.93;23.43;;;5.70;99.90;;;;;;5083834;28;20246;-81
2022/03/02 05:16:10;;;;;;;43.03;22.37;;;5.60;99.90;;;;;;5088409;28;20230;-80
2022/03/02 05:18:41;;;;;;;45.10;23.23;;;5.50;99.90;;;;;;5084694;28;20204;-81
2022/03/02 05:21:08;;;;;;;43.83;21.73;;;5.50;99.90;;;;;;5060250;28;20205;-82
2022/03/02 05:23:35;;;;;;;39.23;20.93;;;5.50;99.90;;;;;;5086828;28;20235;-80
2022/03/02 05:26:02;;;;;;;44.80;22.00;;;5.40;99.90;;;;;;5081223;28;20213;-80
2022/03/02 05:28:29;;;;;;;39.90;20.30;;;5.40;99.90;;;;;;5089679;28;20286;-81
2022/03/02 05:30:55;;;;;;;43.87;22.23;;;5.30;99.90;;;;;;5094253;28;20953;-79
2022/03/02 05:33:22;;;;;;;40.73;21.37;;;5.20;99.90;;;;;;5082560;28;20195;-81
2022/03/02 05:35:49;;;;;;;48.97;23.27;;;5.20;99.90;;;;;;5098249;27;20599;-81
2022/03/02 05:38:16;;;;;;;40.10;22.07;;;5.20;99.90;;;;;;5098496;28;20249;-80
2022/03/02 05:40:43;;;;;;;40.63;21.60;;;4.90;99.90;;;;;;5090353;27;20211;-81
2022/03/02 05:43:10;;;;;;;44.87;22.03;;;5.00;99.90;;;;;;5090742;27;20296;-82
2022/03/02 05:45:37;;;;;;;45.93;22.60;;;4.90;99.90;;;;;;5107625;27;20215;-81
2022/03/02 05:48:04;;;;;;;37.27;20.97;;;4.80;99.90;;;;;;5106801;27;20319;-80
2022/03/02 05:50:31;;;;;;;41.40;22.40;;;4.80;99.90;;;;;;5101629;27;20311;-80
2022/03/02 05:52:58;;;;;;;46.27;23.30;;;4.70;99.90;;;;;;5106507;27;20285;-81
2022/03/02 05:55:25;;;;;;;44.10;22.53;;;4.60;99.90;;;;;;5106490;27;20533;-80
2022/03/02 05:57:51;;;;;;;44.33;22.50;;;4.60;99.90;;;;;;5104900;27;20203;-81
2022/03/02 06:00:18;;;;;;;47.00;22.17;;;4.50;99.90;;;;;;5099762;27;20230;-81
2022/03/02 06:02:46;;;;;;;42.50;22.40;;;4.40;99.90;;;;;;5098951;27;20259;-80
2022/03/02 06:05:14;;;;;;;42.13;22.63;;;4.40;99.90;;;;;;5106118;27;20255;-81
2022/03/02 06:07:41;;;;;;;46.20;23.53;;;4.30;99.90;;;;;;5106105;28;20206;-81
2022/03/02 06:10:08;;;;;;;43.10;22.20;;;4.20;99.90;;;;;;5083727;28;20206;-81
2022/03/02 06:12:36;;;;;;;41.77;22.07;;;4.20;99.90;;;;;;5111304;27;20231;-83
2022/03/02 06:15:04;;;;;;;41.07;22.20;;;4.10;99.90;;;;;;5098617;27;20604;-81
2022/03/02 06:17:30;;;;;;;44.33;23.33;;;4.00;99.90;;;;;;5098346;27;20254;-81
2022/03/02 06:19:57;;;;;;;38.87;21.60;;;4.00;99.90;;;;;;5094442;27;20220;-80
2022/03/02 06:22:28;;;;;;;47.27;22.13;;;3.90;99.90;;;;;;5102940;27;20208;-82
2022/03/02 06:24:55;;;;;;;43.63;23.37;;;3.90;99.90;;;;;;5078114;28;20230;-81
2022/03/02 06:27:22;;;;;;;50.73;23.70;;;3.90;99.90;;;;;;5107428;27;20700;-81
2022/03/02 06:29:49;;;;;;;48.47;25.00;;;3.80;99.90;;;;;;5101133;27;20218;-81
2022/03/02 06:32:16;;;;;;;44.17;22.53;;;3.80;99.90;;;;;;5103034;27;20227;-81
2022/03/02 06:34:43;;;;;;;44.03;22.70;;;3.70;99.90;;;;;;5102082;27;20241;-81
2022/03/02 06:37:10;;;;;;;47.67;23.53;;;3.70;99.90;;;;;;5099005;27;20243;-80
2022/03/02 06:39:38;;;;;;;52.73;23.37;;;3.70;99.90;;;;;;5089670;27;20235;-81
2022/03/02 06:42:27;;;;;;;45.37;22.77;;;3.70;99.90;;;;;;5102068;27;20644;-80
2022/03/02 06:44:56;;;;;;;52.47;25.07;;;3.70;99.90;;;;;;5096897;27;20301;-80
2022/03/02 06:47:27;;;;;;;51.27;23.93;;;3.70;99.90;;;;;;5082244;27;20201;-79
2022/03/02 06:50:10;;;;;;;54.93;25.13;;;3.70;99.90;;;;;;5104954;27;20226;-81
2022/03/02 06:52:39;;;;;;;50.70;23.03;;;3.70;99.90;;;;;;5100251;27;20408;-81
2022/03/02 06:55:09;;;;;;;52.57;23.97;;;3.80;99.90;;;;;;5107420;27;20204;-81
2022/03/02 06:57:36;;;;;;;46.47;23.47;;;3.80;99.90;;;;;;5106615;27;20662;-81
2022/03/02 07:00:16;;;;;;;47.53;24.40;;;3.80;99.90;;;;;;5083418;28;20220;-80
2022/03/02 07:02:51;;;;;;;52.93;24.70;;;3.90;99.90;;;;;;5098041;27;20265;-81
2022/03/02 07:05:20;;;;;;;48.17;24.23;;;3.90;99.90;;;;;;5106100;27;20297;-81
2022/03/02 07:07:48;;;;;;;54.10;26.03;;;4.10;99.90;;;;;;5095336;28;20209;-83
2022/03/02 07:10:15;;;;;;;47.13;24.70;;;4.50;99.90;;;;;;5095285;27;20255;-80
2022/03/02 07:12:43;;;;;;;42.03;22.10;;;5.30;99.90;;;;;;5107183;27;20252;-83
2022/03/02 07:15:11;;;;;;;42.93;21.77;;;6.10;99.90;;;;;;5103128;27;20218;-82
2022/03/02 07:17:39;;;;;;;37.77;19.37;;;6.90;99.90;;;;;;5105562;27;20272;-82
2022/03/02 07:20:10;;;;;;;38.07;21.37;;;7.50;99.90;;;;;;5097950;27;20204;-82
2022/03/02 07:22:57;;;;;;;40.97;20.33;;;8.00;99.90;;;;;;5080073;28;20291;-81
2022/03/02 07:25:29;;;;;;;37.30;20.53;;;8.20;99.90;;;;;;5092975;28;20218;-81
2022/03/02 07:27:57;;;;;;;36.53;22.27;;;8.50;99.90;;;;;;5100400;27;20554;-81
2022/03/02 07:30:26;;;;;;;37.30;19.97;;;8.80;99.90;;;;;;5083914;28;20221;-81
2022/03/02 07:33:04;;;;;;;35.37;19.40;;;9.20;99.90;;;;;;5085226;27;20616;-80
2022/03/02 07:35:37;;;;;;;37.57;20.67;;;9.70;99.90;;;;;;5084142;28;20273;-80
2022/03/02 07:38:06;;;;;;;40.30;20.53;;;10.10;99.90;;;;;;5083752;28;20307;-81
2022/03/02 07:40:34;;;;;;;37.53;19.63;;;10.50;99.90;;;;;;5078460;28;20211;-81
2022/03/02 07:43:01;;;;;;;40.70;21.13;;;10.80;99.90;;;;;;5085007;28;20199;-81
2022/03/02 07:45:28;;;;;;;33.23;21.00;;;10.90;99.90;;;;;;5082741;28;20247;-82
2022/03/02 07:47:56;;;;;;;36.93;21.17;;;10.60;99.90;;;;;;5087143;28;20272;-80
2022/03/02 07:50:24;;;;;;;36.27;20.77;;;10.10;99.90;;;;;;5085112;28;20544;-82
2022/03/02 07:52:52;;;;;;;45.07;23.93;;;;;;;;;;5086298;28;20241;-82
2022/03/02 07:55:19;;;;;;;39.03;21.97;;;9.10;99.90;;;;;;5090274;28;20258;-80
2022/03/02 07:57:52;;;;;;;35.90;21.50;;;8.70;99.90;;;;;;5080566;28;20318;-81
2022/03/02 08:00:19;;;;;;;39.23;22.30;;;8.40;99.90;;;;;;5084271;28;20323;-80
2022/03/02 08:02:47;;;;;;;40.53;21.47;;;8.10;99.90;;;;;;5081416;28;20276;-80
2022/03/02 08:05:15;;;;;;;37.07;21.93;;;7.80;99.90;;;;;;5081300;28;20204;-81
2022/03/02 08:07:42;;;;;;;41.93;22.27;;;7.60;99.90;;;;;;5085626;28;20255;-81
2022/03/02 08:10:10;;;;;;;41.17;22.30;;;7.40;99.90;;;;;;5078964;28;20200;-81
2022/03/02 08:12:36;;;;;;;41.33;22.93;;;7.30;99.90;;;;;;5085209;28;20244;-80
2022/03/02 08:15:05;;;;;;;40.77;23.77;;;7.10;99.90;;;;;;5087334;28;20288;-81
2022/03/02 08:17:32;;;;;;;41.57;22.03;;;7.00;99.90;;;;;;5083036;28;20207;-81
2022/03/02 08:19:59;;;;;;;40.53;23.13;;;6.90;99.90;;;;;;5084361;28;20280;-80
2022/03/02 08:22:29;;;;;;;47.30;23.80;;;6.90;99.90;;;;;;5082358;28;20266;-82
2022/03/02 08:25:11;;;;;;;42.07;23.90;;;6.80;99.90;;;;;;5084145;28;20240;-81
2022/03/02 08:27:39;;;;;;;40.73;23.37;;;6.70;99.90;;;;;;5083973;28;20235;-81
2022/03/02 08:30:08;;;;;;;43.77;22.70;;;6.70;99.90;;;;;;5081514;28;20208;-81
2022/03/02 08:32:40;;;;;;;44.57;23.17;;;6.60;99.90;;;;;;5080961;28;20248;-81
2022/03/02 08:35:07;;;;;;;41.17;23.37;;;6.70;99.90;;;;;;5081323;28;20219;-80
2022/03/02 08:37:35;;;;;;;40.30;21.57;;;6.70;99.90;;;;;;5081175;28;20205;-80
2022/03/02 08:40:04;;;;;;;41.00;21.50;;;6.90;99.90;;;;;;5083637;28;20284;-80
2022/03/02 08:42:32;;;;;;;41.67;22.20;;;6.70;99.90;;;;;;5079022;28;20266;-82
2022/03/02 08:45:01;;;;;;;31.23;18.50;;;6.60;99.90;;;;;;5063377;28;20236;-82
2022/03/02 08:47:28;;;;;;;34.93;17.97;;;6.70;99.90;;;;;;5069636;28;20200;-80
2022/03/02 08:49:54;;;;;;;32.80;17.87;;;6.80;99.90;;;;;;5067527;28;20197;-80
2022/03/02 08:52:27;;;;;;;31.50;17.53;;;6.90;99.90;;;;;;5069863;28;20349;-81
2022/03/02 08:54:55;;;;;;;32.87;18.40;;;7.00;99.90;;;;;;5063204;28;20575;-81
2022/03/02 08:57:23;;;;;;;31.50;17.57;;;7.10;99.90;;;;;;5070269;28;20202;-81
2022/03/02 08:59:54;;;;;;;33.37;18.00;;;7.10;99.90;;;;;;5067043;28;20387;-81
2022/03/02 09:02:29;;;;;;;35.60;17.53;;;7.20;99.90;;;;;;5070090;28;20222;-80
2022/03/02 09:05:00;;;;;;;31.80;17.30;;;7.20;99.90;;;;;;5066977;28;20217;-80
2022/03/02 09:07:27;;;;;;;32.30;17.00;;;7.20;99.90;;;;;;5066795;28;20267;-80
2022/03/02 09:09:55;;;;;;;32.93;17.93;;;7.20;99.90;;;;;;5063973;28;20213;-81
2022/03/02 09:12:22;;;;;;;28.30;16.13;;;7.20;99.90;;;;;;5067934;28;20242;-81
2022/03/02 09:14:49;;;;;;;31.17;17.43;;;7.40;99.90;;;;;;5067284;28;20515;-82
2022/03/02 09:17:24;;;;;;;28.73;16.23;;;7.20;99.90;;;;;;5069995;28;20218;-81
2022/03/02 09:19:52;;;;;;;28.07;16.57;;;7.40;99.90;;;;;;5063433;28;20205;-80
2022/03/02 09:22:22;;;;;;;33.53;16.30;;;7.30;99.90;;;;;;5065363;28;20224;-80
2022/03/02 09:24:49;;;;;;;31.63;17.60;;;7.30;99.90;;;;;;5067262;28;20352;-82
2022/03/02 09:27:17;;;;;;;30.10;16.40;;;7.30;99.90;;;;;;5071085;28;20330;-81
2022/03/02 09:29:47;;;;;;;31.47;17.30;;;7.30;99.90;;;;;;5064323;28;20292;-81
2022/03/02 09:32:15;;;;;;;27.93;16.10;;;7.40;99.90;;;;;;5065570;28;20678;-79
2022/03/02 09:34:49;;;;;;;27.63;15.03;;;7.40;99.90;;;;;;5066467;28;20226;-80
2022/03/02 09:37:16;;;;;;;29.70;15.97;;;7.50;99.90;;;;;;5072804;28;20529;-80
2022/03/02 09:39:48;;;;;;;28.80;16.30;;;7.60;99.90;;;;;;5066491;28;20197;-81
2022/03/02 09:42:25;;;;;;;29.97;17.23;;;7.60;99.90;;;;;;5066359;28;20745;-80
2022/03/02 09:45:04;;;;;;;34.17;17.63;;;7.70;99.90;;;;;;5067030;28;20206;-80
2022/03/02 09:48:03;;;;;;;25.20;15.47;;;7.70;99.90;;;;;;5066208;28;20204;-81
2022/03/02 09:50:34;;;;;;;28.97;16.00;;;7.80;99.90;;;;;;5066916;28;20603;-80
2022/03/02 09:53:05;;;;;;;25.73;15.20;;;7.90;99.90;;;;;;5069087;28;20231;-81
2022/03/02 09:55:34;;;;;;;28.50;16.30;;;8.00;99.90;;;;;;5065044;28;20280;-79
2022/03/02 09:58:01;;;;;;;32.77;17.80;;;8.00;99.90;;;;;;5068333;28;20245;-80
2022/03/02 10:00:29;;;;;;;32.40;16.90;;;8.20;99.90;;;;;;5070270;28;20301;-80
2022/03/02 10:02:59;;;;;;;35.03;17.27;;;8.20;99.90;;;;;;5063018;28;20239;-79
2022/03/02 10:05:29;;;;;;;29.53;15.77;;;8.30;99.90;;;;;;5072133;28;20207;-80
2022/03/02 10:08:01;;;;;;;32.00;16.90;;;8.40;99.90;;;;;;5067187;28;20227;-79
2022/03/02 10:10:31;;;;;;;28.57;15.83;;;8.40;99.90;;;;;;5065565;28;20319;-81
2022/03/02 10:13:04;;;;;;;29.93;16.83;;;8.40;99.90;;;;;;5061704;28;20233;-79
2022/03/02 10:15:32;;;;;;;27.37;15.77;;;8.40;99.90;;;;;;5067624;28;20526;-80
2022/03/02 10:18:06;;;;;;;26.20;15.17;;;8.50;99.90;;;;;;5070333;28;20208;-80
2022/03/02 10:20:36;;;;;;;23.93;13.47;;;8.50;99.90;;;;;;5067834;28;20210;-79
2022/03/02 10:23:41;;;;;;;17.10;9.77;;;8.50;99.90;;;;;;5065447;28;20290;-80
2022/03/02 10:26:19;;;;;;;16.73;10.30;;;8.50;99.90;;;;;;5079809;28;20601;-79
2022/03/02 10:28:58;;;;;;;17.43;9.77;;;8.60;99.90;;;;;;5066338;28;20285;-79
2022/03/02 10:31:34;;;;;;;19.20;9.63;;;8.70;99.90;;;;;;5063445;28;20239;-80
2022/03/02 10:34:27;;;;;;;18.63;10.43;;;8.80;99.90;;;;;;5071724;28;20662;-80
2022/03/02 10:37:31;;;;;;;15.97;9.63;;;8.80;99.90;;;;;;5059137;28;20208;-80
2022/03/02 10:40:24;;;;;;;18.00;10.10;;;8.80;99.90;;;;;;5004666;28;20607;-80
2022/03/02 10:42:57;;;;;;;17.43;10.30;;;8.90;99.90;;;;;;5062763;28;20664;-79
2022/03/02 10:45:26;;;;;;;19.60;10.10;;;9.00;99.90;;;;;;5067800;28;20768;-80
2022/03/02 10:48:02;;;;;;;22.33;10.70;;;8.90;99.90;;;;;;5073196;28;20212;-80
2022/03/02 10:50:34;;;;;;;17.83;9.80;;;9.00;99.90;;;;;;5060263;28;20722;-79
2022/03/02 10:53:07;;;;;;;19.00;9.10;;;9.10;99.90;;;;;;5069897;28;20310;-80
2022/03/02 10:55:35;;;;;;;15.87;9.90;;;9.10;99.90;;;;;;5068187;28;20211;-79
2022/03/02 10:58:05;;;;;;;18.83;9.60;;;9.10;99.90;;;;;;5066937;28;20294;-78
2022/03/02 11:00:33;;;;;;;17.43;10.30;;;9.10;99.90;;;;;;5066272;28;20248;-80
2022/03/02 11:03:02;;;;;;;17.27;9.97;;;9.20;99.90;;;;;;5069260;28;20208;-80
2022/03/02 11:05:30;;;;;;;17.00;10.30;;;9.20;99.90;;;;;;5066548;28;20676;-79
2022/03/02 11:07:58;;;;;;;17.33;9.93;;;9.30;99.90;;;;;;5049168;28;20208;-81
2022/03/02 11:10:33;;;;;;;18.07;10.43;;;9.40;99.90;;;;;;5088614;28;20626;-78
2022/03/02 11:13:05;;;;;;;18.43;9.93;;;10.00;99.90;;;;;;5096953;28;20288;-80
2022/03/02 11:15:52;;;;;;;17.70;9.83;;;9.60;99.90;;;;;;5087962;28;20684;-80
2022/03/02 11:18:39;;;;;;;14.60;9.37;;;9.70;99.90;;;;;;5091180;28;20207;-80
2022/03/02 11:21:20;;;;;;;16.33;9.63;;;9.80;99.30;;;;;;5089478;28;20272;-79
2022/03/02 11:23:52;;;;;;;18.47;10.10;;;10.00;99.50;;;;;;5086570;28;20619;-79
2022/03/02 11:26:26;;;;;;;15.40;9.63;;;10.10;98.70;;;;;;5072458;28;20286;-80
2022/03/02 11:28:55;;;;;;;14.23;9.83;;;10.20;98.90;;;;;;5087457;28;20204;-80
2022/03/02 11:31:31;;;;;;;15.80;9.90;;;10.40;98.30;;;;;;5093016;28;20238;-79
2022/03/02 11:34:15;;;;;;;17.23;9.97;;;10.60;97.60;;;;;;5085141;28;20702;-80
2022/03/02 11:36:45;;;;;;;17.87;10.37;;;10.70;97.10;;;;;;5067213;28;20198;-81
2022/03/02 11:39:15;;;;;;;17.43;10.63;;;10.80;97.70;;;;;;5082741;28;20232;-78
2022/03/02 11:41:44;;;;;;;19.60;10.50;;;10.90;97.60;;;;;;5094414;28;20709;-80
2022/03/02 11:44:30;;;;;;;17.07;10.20;;;;;;;;;;5084027;28;20683;-80
2022/03/02 11:47:21;;;;;;;17.43;9.73;;;11.10;96.40;;;;;;5091939;28;20734;-79
2022/03/02 11:49:51;;;;;;;16.20;10.53;;;11.20;96.50;;;;;;5085828;28;20424;-79
2022/03/02 11:52:22;;;;;;;19.60;10.60;;;11.20;96.30;;;;;;5052739;28;20322;-80
2022/03/02 11:54:59;;;;;;;20.13;11.03;;;11.30;95.80;;;;;;5087777;28;20234;-80
2022/03/02 11:57:28;;;;;;;16.10;11.00;;;11.30;95.40;;;;;;5087756;28;20265;-79
2022/03/02 12:00:25;;;;;;;17.43;10.40;;;11.40;95.90;;;;;;5092129;28;20214;-79
2022/03/02 12:02:57;;;;;;;18.87;10.60;;;11.50;96.30;;;;;;5064835;28;20294;-80
2022/03/02 12:05:30;;;;;;;23.37;11.17;;;11.50;95.90;;;;;;5085725;28;20211;-81
2022/03/02 12:08:07;;;;;;;18.70;10.80;;;11.50;94.60;;;;;;5088042;28;20202;-80
2022/03/02 12:10:37;;;;;;;17.40;10.97;;;11.50;94.60;;;;;;5087308;28;20219;-79
2022/03/02 12:13:04;;;;;;;17.27;11.00;;;11.50;94.70;;;;;;5092517;28;20249;-79
2022/03/02 12:15:52;;;;;;;21.50;11.73;;;11.50;94.40;;;;;;5071980;28;20304;-81
2022/03/02 12:18:21;;;;;;;18.97;11.00;;;11.60;93.90;;;;;;5089321;28;20245;-78
2022/03/02 12:20:56;;;;;;;16.60;10.17;;;11.60;94.30;;;;;;5096385;28;20577;-79
2022/03/02 12:23:28;;;;;;;16.47;10.17;;;11.80;94.20;;;;;;5086002;28;20286;-80
2022/03/02 12:25:55;;;;;;;19.50;12.67;;;11.80;93.90;;;;;;5092481;28;20207;-81
2022/03/02 12:28:23;;;;;;;24.73;12.17;;;11.90;93.40;;;;;;5093253;28;20210;-81
2022/03/02 12:30:50;;;;;;;22.03;11.27;;;11.90;93.70;;;;;;5095871;28;21029;-81
2022/03/02 12:33:18;;;;;;;19.50;11.10;;;11.80;92.90;;;;;;5098273;28;20467;-80
2022/03/02 12:35:45;;;;;;;18.50;11.23;;;11.80;93.30;;;;;;5093046;28;20211;-80
2022/03/02 12:38:13;;;;;;;22.37;11.33;;;11.90;93.90;;;;;;5093891;28;20234;-80
2022/03/02 12:40:41;;;;;;;18.20;10.97;;;12.00;93.00;;;;;;5090811;28;20235;-81
2022/03/02 12:43:14;;;;;;;19.57;10.40;;;12.10;93.30;;;;;;5079732;28;20207;-81
2022/03/02 12:45:44;;;;;;;18.60;11.03;;;12.20;93.90;;;;;;5087673;28;20215;-77
2022/03/02 12:48:13;;;;;;;18.23;11.20;;;12.30;93.20;;;;;;5098794;28;20690;-80